TIGER7 KBOS-EGPH
Flight info
| Callsign | TIGER7 |
|---|---|
| Flight time | N/A |
| Altitude | 41000 |
| Route | CELTK7 CELTK DCT FRILL DCT BRADD N261B NICSO/M080F400 NATS BEXET/N0464F410 DCT NIBOG DCT MAC/N0433F250 N562 TRN DCT TLA |
| Aircraft | B737/M-SDE2E3FGHIRWXY/LB1 |
Departure
| Time | N/A |
|---|---|
| Airport | Boston Logan International Airport (KBOS) |
Arrival
| Time | 2026-05-05 06:01 |
|---|---|
| Airport | Edinburgh Airport (EGPH) |
| Time | Latitude | Longitude | Altitude | Speed | Heading |
|---|---|---|---|---|---|
| 2026-05-05 01:23 | 46.12868 | -57.79340 | 40769 ft | 507 kts | 70° |
| 2026-05-05 01:24 | 46.15398 | -57.69896 | 40765 ft | 507 kts | 70° |
| 2026-05-05 01:24 | 46.17918 | -57.60449 | 40761 ft | 506 kts | 70° |
| 2026-05-05 01:25 | 46.20430 | -57.50999 | 40756 ft | 506 kts | 70° |
| 2026-05-05 01:25 | 46.22935 | -57.41535 | 40752 ft | 506 kts | 70° |
| 2026-05-05 01:26 | 46.25434 | -57.32056 | 40750 ft | 506 kts | 71° |
| 2026-05-05 01:26 | 46.27924 | -57.22574 | 40750 ft | 506 kts | 71° |
| 2026-05-05 01:27 | 46.30406 | -57.13080 | 40750 ft | 506 kts | 71° |
| 2026-05-05 01:27 | 46.32881 | -57.03575 | 40750 ft | 506 kts | 71° |
| 2026-05-05 01:28 | 46.35348 | -56.94065 | 40750 ft | 507 kts | 71° |
| 2026-05-05 01:28 | 46.37812 | -56.84526 | 40750 ft | 508 kts | 71° |
| 2026-05-05 01:29 | 46.40268 | -56.74978 | 40750 ft | 508 kts | 71° |
| 2026-05-05 01:29 | 46.42721 | -56.65402 | 40750 ft | 509 kts | 71° |
| 2026-05-05 01:30 | 46.45170 | -56.55802 | 40750 ft | 510 kts | 71° |
| 2026-05-05 01:30 | 46.47614 | -56.46184 | 40750 ft | 510 kts | 71° |
| 2026-05-05 01:31 | 46.50053 | -56.36541 | 40750 ft | 511 kts | 71° |
| 2026-05-05 01:31 | 46.52486 | -56.26886 | 40750 ft | 510 kts | 72° |
| 2026-05-05 01:32 | 46.54906 | -56.17241 | 40750 ft | 511 kts | 72° |
| 2026-05-05 01:32 | 46.57322 | -56.07567 | 40750 ft | 512 kts | 72° |
| 2026-05-05 01:33 | 46.59730 | -55.97886 | 40750 ft | 510 kts | 72° |
| 2026-05-05 01:33 | 46.62129 | -55.88201 | 40750 ft | 511 kts | 72° |
| 2026-05-05 01:34 | 46.64523 | -55.78496 | 40750 ft | 511 kts | 72° |
| 2026-05-05 01:34 | 46.66905 | -55.68795 | 40750 ft | 510 kts | 72° |
| 2026-05-05 01:35 | 46.69275 | -55.59103 | 40749 ft | 509 kts | 72° |
| 2026-05-05 01:35 | 46.71630 | -55.49427 | 40750 ft | 508 kts | 72° |
| 2026-05-05 01:36 | 46.73977 | -55.39747 | 40744 ft | 509 kts | 72° |
| 2026-05-05 01:36 | 46.76315 | -55.30060 | 40736 ft | 508 kts | 72° |
| 2026-05-05 01:37 | 46.78641 | -55.20378 | 40728 ft | 507 kts | 72° |
| 2026-05-05 01:37 | 46.80960 | -55.10685 | 40694 ft | 508 kts | 72° |
| 2026-05-05 01:38 | 46.83277 | -55.00954 | 40654 ft | 509 kts | 72° |
| 2026-05-05 01:38 | 46.85590 | -54.91204 | 40624 ft | 509 kts | 72° |
| 2026-05-05 01:39 | 46.87893 | -54.81448 | 40617 ft | 508 kts | 72° |
| 2026-05-05 01:39 | 46.90185 | -54.71695 | 40615 ft | 508 kts | 72° |
| 2026-05-05 01:40 | 46.92469 | -54.61937 | 40615 ft | 509 kts | 72° |
| 2026-05-05 01:40 | 46.94745 | -54.52166 | 40615 ft | 509 kts | 72° |
| 2026-05-05 01:41 | 46.97009 | -54.42402 | 40615 ft | 509 kts | 72° |
| 2026-05-05 01:41 | 46.99265 | -54.32630 | 40615 ft | 508 kts | 73° |
| 2026-05-05 01:42 | 47.01513 | -54.22849 | 40615 ft | 508 kts | 73° |
| 2026-05-05 01:42 | 47.03748 | -54.13080 | 40594 ft | 507 kts | 73° |
| 2026-05-05 01:43 | 47.05976 | -54.03299 | 40571 ft | 507 kts | 73° |
| 2026-05-05 01:43 | 47.08194 | -53.93515 | 40560 ft | 508 kts | 73° |
| 2026-05-05 01:44 | 47.10409 | -53.83700 | 40560 ft | 508 kts | 73° |
| 2026-05-05 01:44 | 47.12613 | -53.73886 | 40560 ft | 508 kts | 73° |
| 2026-05-05 01:45 | 47.14824 | -53.63995 | 40560 ft | 508 kts | 73° |
| 2026-05-05 01:45 | 47.17010 | -53.54176 | 40560 ft | 508 kts | 73° |
| 2026-05-05 01:46 | 47.19190 | -53.44333 | 40560 ft | 508 kts | 73° |
| 2026-05-05 01:46 | 47.21363 | -53.34476 | 40560 ft | 508 kts | 74° |
| 2026-05-05 01:47 | 47.23526 | -53.24619 | 40560 ft | 507 kts | 74° |
| 2026-05-05 01:47 | 47.25664 | -53.14828 | 40560 ft | 507 kts | 74° |
| 2026-05-05 01:48 | 47.27808 | -53.04966 | 40560 ft | 508 kts | 74° |
| 2026-05-05 01:48 | 47.29958 | -52.95031 | 40608 ft | 507 kts | 74° |
| 2026-05-05 01:49 | 47.32084 | -52.85154 | 40672 ft | 507 kts | 75° |
| 2026-05-05 01:49 | 47.34199 | -52.75286 | 40716 ft | 506 kts | 75° |
| 2026-05-05 01:50 | 47.36303 | -52.65419 | 40716 ft | 505 kts | 75° |
| 2026-05-05 01:50 | 47.38392 | -52.55574 | 40716 ft | 505 kts | 75° |
| 2026-05-05 01:51 | 47.40475 | -52.45711 | 40716 ft | 505 kts | 75° |
| 2026-05-05 01:51 | 47.42550 | -52.35839 | 40716 ft | 504 kts | 75° |
| 2026-05-05 01:52 | 47.44611 | -52.25987 | 40716 ft | 503 kts | 75° |
| 2026-05-05 01:52 | 47.46659 | -52.16145 | 40716 ft | 502 kts | 75° |
| 2026-05-05 01:53 | 47.48696 | -52.06311 | 40716 ft | 502 kts | 75° |
| 2026-05-05 01:53 | 47.50775 | -51.96497 | 40709 ft | 503 kts | 72° |
| 2026-05-05 01:54 | 47.53339 | -51.86883 | 40701 ft | 504 kts | 70° |
| 2026-05-05 01:54 | 47.55886 | -51.77262 | 40698 ft | 504 kts | 71° |
| 2026-05-05 01:55 | 47.58381 | -51.67613 | 40698 ft | 504 kts | 71° |
| 2026-05-05 01:55 | 47.60876 | -51.57944 | 40698 ft | 504 kts | 71° |
| 2026-05-05 01:56 | 47.63358 | -51.48256 | 40697 ft | 505 kts | 71° |
| 2026-05-05 01:56 | 47.65835 | -51.38543 | 40697 ft | 505 kts | 71° |
| 2026-05-05 01:57 | 47.68302 | -51.28826 | 40698 ft | 505 kts | 72° |
| 2026-05-05 01:57 | 47.70763 | -51.19087 | 40698 ft | 506 kts | 72° |
| 2026-05-05 01:58 | 47.73219 | -51.09323 | 40697 ft | 507 kts | 72° |
| 2026-05-05 01:58 | 47.75670 | -50.99538 | 40689 ft | 507 kts | 72° |
| 2026-05-05 01:59 | 47.78108 | -50.89765 | 40682 ft | 506 kts | 72° |
| 2026-05-05 01:59 | 47.80534 | -50.79991 | 40679 ft | 506 kts | 72° |
| 2026-05-05 02:00 | 47.82954 | -50.70204 | 40679 ft | 506 kts | 72° |
| 2026-05-05 02:00 | 47.85362 | -50.60421 | 40679 ft | 505 kts | 72° |
| 2026-05-05 02:01 | 47.87762 | -50.50626 | 40677 ft | 505 kts | 72° |
| 2026-05-05 02:01 | 47.90166 | -50.40773 | 40676 ft | 504 kts | 72° |
| 2026-05-05 02:02 | 47.92541 | -50.30995 | 40675 ft | 503 kts | 73° |
| 2026-05-05 02:02 | 47.94905 | -50.21223 | 40673 ft | 502 kts | 73° |
| 2026-05-05 02:03 | 47.97239 | -50.11531 | 40671 ft | 501 kts | 73° |
| 2026-05-05 02:03 | 47.99597 | -50.01693 | 40666 ft | 502 kts | 73° |
| 2026-05-05 02:04 | 48.01998 | -49.91933 | 40661 ft | 503 kts | 72° |
| 2026-05-05 02:04 | 48.04472 | -49.82209 | 40661 ft | 503 kts | 72° |
| 2026-05-05 02:05 | 48.06914 | -49.72459 | 40661 ft | 502 kts | 72° |
| 2026-05-05 02:05 | 48.09346 | -49.62702 | 40661 ft | 502 kts | 72° |
| 2026-05-05 02:06 | 48.11767 | -49.52945 | 40661 ft | 502 kts | 72° |
| 2026-05-05 02:06 | 48.14176 | -49.43191 | 40661 ft | 501 kts | 72° |
| 2026-05-05 02:07 | 48.16577 | -49.33426 | 40661 ft | 501 kts | 73° |
| 2026-05-05 02:07 | 48.18960 | -49.23686 | 40661 ft | 499 kts | 73° |
| 2026-05-05 02:08 | 48.21330 | -49.13959 | 40663 ft | 499 kts | 73° |
| 2026-05-05 02:08 | 48.23695 | -49.04209 | 40666 ft | 499 kts | 73° |
| 2026-05-05 02:09 | 48.26054 | -48.94439 | 40670 ft | 499 kts | 73° |
| 2026-05-05 02:09 | 48.28406 | -48.84654 | 40670 ft | 500 kts | 73° |
| 2026-05-05 02:10 | 48.30751 | -48.74857 | 40670 ft | 500 kts | 73° |
| 2026-05-05 02:10 | 48.33092 | -48.65036 | 40670 ft | 501 kts | 73° |
| 2026-05-05 02:11 | 48.35409 | -48.55267 | 40670 ft | 501 kts | 73° |
| 2026-05-05 02:11 | 48.37737 | -48.45411 | 40670 ft | 502 kts | 73° |
| 2026-05-05 02:12 | 48.41222 | -48.30570 | 40670 ft | 501 kts | 74° |
| 2026-05-05 02:13 | 48.43528 | -48.20695 | 40670 ft | 502 kts | 74° |
| 2026-05-05 02:13 | 48.45825 | -48.10811 | 40670 ft | 502 kts | 74° |
| 2026-05-05 02:14 | 48.48115 | -48.00915 | 40670 ft | 502 kts | 74° |
| 2026-05-05 02:14 | 48.50397 | -47.91009 | 40670 ft | 501 kts | 74° |
| 2026-05-05 02:15 | 48.52665 | -47.81112 | 40670 ft | 500 kts | 74° |
| 2026-05-05 02:15 | 48.54922 | -47.71221 | 40670 ft | 500 kts | 74° |
| 2026-05-05 02:16 | 48.57171 | -47.61318 | 40670 ft | 500 kts | 74° |
| 2026-05-05 02:16 | 48.59410 | -47.51416 | 40670 ft | 499 kts | 74° |
| 2026-05-05 02:17 | 48.61635 | -47.41531 | 40670 ft | 498 kts | 74° |
| 2026-05-05 02:17 | 48.63847 | -47.31654 | 40670 ft | 498 kts | 75° |
| 2026-05-05 02:18 | 48.66049 | -47.21777 | 40670 ft | 497 kts | 75° |
| 2026-05-05 02:18 | 48.68241 | -47.11898 | 40670 ft | 496 kts | 75° |
| 2026-05-05 02:19 | 48.70419 | -47.02028 | 40671 ft | 497 kts | 75° |
| 2026-05-05 02:19 | 48.72594 | -46.92135 | 40678 ft | 497 kts | 75° |
| 2026-05-05 02:20 | 48.74762 | -46.82222 | 40686 ft | 497 kts | 75° |
| 2026-05-05 02:20 | 48.76921 | -46.72304 | 40688 ft | 497 kts | 75° |
| 2026-05-05 02:21 | 48.79071 | -46.62382 | 40688 ft | 497 kts | 75° |
| 2026-05-05 02:21 | 48.81211 | -46.52457 | 40688 ft | 497 kts | 76° |
| 2026-05-05 02:22 | 48.83347 | -46.42501 | 40688 ft | 498 kts | 75° |
| 2026-05-05 02:22 | 48.85475 | -46.32532 | 40689 ft | 498 kts | 76° |
| 2026-05-05 02:23 | 48.87593 | -46.22574 | 40688 ft | 496 kts | 76° |
| 2026-05-05 02:23 | 48.89694 | -46.12634 | 40688 ft | 495 kts | 76° |
| 2026-05-05 02:24 | 48.91786 | -46.02689 | 40690 ft | 495 kts | 76° |
| 2026-05-05 02:24 | 48.93872 | -45.92730 | 40694 ft | 496 kts | 76° |
| 2026-05-05 02:25 | 48.95949 | -45.82761 | 40697 ft | 495 kts | 76° |
| 2026-05-05 02:25 | 48.98015 | -45.72796 | 40697 ft | 495 kts | 76° |
| 2026-05-05 02:26 | 49.00072 | -45.62823 | 40697 ft | 495 kts | 77° |
| 2026-05-05 02:26 | 49.02118 | -45.52857 | 40697 ft | 494 kts | 77° |
| 2026-05-05 02:27 | 49.04153 | -45.42891 | 40697 ft | 494 kts | 77° |
| 2026-05-05 02:27 | 49.06181 | -45.32910 | 40698 ft | 494 kts | 77° |
| 2026-05-05 02:28 | 49.08197 | -45.22941 | 40698 ft | 494 kts | 77° |
| 2026-05-05 02:28 | 49.10206 | -45.12958 | 40697 ft | 493 kts | 78° |
| 2026-05-05 02:29 | 49.12200 | -45.02992 | 40703 ft | 493 kts | 78° |
| 2026-05-05 02:29 | 49.14187 | -44.93013 | 40726 ft | 492 kts | 78° |
| 2026-05-05 02:30 | 49.16163 | -44.83038 | 40760 ft | 492 kts | 78° |
| 2026-05-05 02:30 | 49.18130 | -44.73057 | 40783 ft | 492 kts | 78° |
| 2026-05-05 02:31 | 49.20087 | -44.63076 | 40805 ft | 491 kts | 78° |
| 2026-05-05 02:31 | 49.22035 | -44.53091 | 40827 ft | 491 kts | 78° |
| 2026-05-05 02:32 | 49.23971 | -44.43112 | 40850 ft | 490 kts | 78° |
| 2026-05-05 02:32 | 49.25894 | -44.33151 | 40871 ft | 489 kts | 79° |
| 2026-05-05 02:33 | 49.27805 | -44.23204 | 40893 ft | 488 kts | 79° |
| 2026-05-05 02:33 | 49.29705 | -44.13249 | 40900 ft | 489 kts | 79° |
| 2026-05-05 02:34 | 49.31290 | -44.04910 | 40910 ft | 488 kts | 79° |
| 2026-05-05 02:34 | 49.33481 | -43.93329 | 40923 ft | 487 kts | 79° |
| 2026-05-05 02:35 | 49.35351 | -43.83378 | 40926 ft | 487 kts | 79° |
| 2026-05-05 02:35 | 49.37215 | -43.73410 | 40926 ft | 488 kts | 79° |
| 2026-05-05 02:36 | 49.39071 | -43.63432 | 40926 ft | 488 kts | 78° |
| 2026-05-05 02:36 | 49.40918 | -43.53447 | 40926 ft | 488 kts | 78° |
| 2026-05-05 02:37 | 49.42758 | -43.43450 | 40926 ft | 488 kts | 78° |
| 2026-05-05 02:37 | 49.44590 | -43.33438 | 40926 ft | 489 kts | 79° |
| 2026-05-05 02:38 | 49.46413 | -43.23422 | 40926 ft | 487 kts | 79° |
| 2026-05-05 02:38 | 49.48225 | -43.13418 | 40932 ft | 487 kts | 79° |
| 2026-05-05 02:39 | 49.50024 | -43.03422 | 40944 ft | 487 kts | 79° |
| 2026-05-05 02:39 | 49.51816 | -42.93413 | 40964 ft | 487 kts | 79° |
| 2026-05-05 02:40 | 49.53600 | -42.83391 | 40963 ft | 487 kts | 79° |
| 2026-05-05 02:40 | 49.55379 | -42.73346 | 40963 ft | 486 kts | 79° |
| 2026-05-05 02:41 | 49.57143 | -42.63324 | 40963 ft | 485 kts | 79° |
| 2026-05-05 02:41 | 49.58895 | -42.53321 | 40963 ft | 485 kts | 79° |
| 2026-05-05 02:42 | 49.60634 | -42.43332 | 40963 ft | 484 kts | 79° |
| 2026-05-05 02:42 | 49.62362 | -42.33350 | 40963 ft | 483 kts | 80° |
| 2026-05-05 02:43 | 49.64077 | -42.23387 | 40963 ft | 482 kts | 80° |
| 2026-05-05 02:43 | 49.65783 | -42.13419 | 40973 ft | 482 kts | 80° |
| 2026-05-05 02:44 | 49.67478 | -42.03462 | 40985 ft | 482 kts | 80° |
| 2026-05-05 02:44 | 49.69165 | -41.93489 | 40990 ft | 482 kts | 80° |
| 2026-05-05 02:45 | 49.70844 | -41.83508 | 40990 ft | 482 kts | 80° |
| 2026-05-05 02:45 | 49.72515 | -41.73519 | 40990 ft | 482 kts | 80° |
| 2026-05-05 02:46 | 49.74180 | -41.63508 | 40990 ft | 483 kts | 80° |
| 2026-05-05 02:46 | 49.75838 | -41.53469 | 40990 ft | 484 kts | 79° |
| 2026-05-05 02:47 | 49.77490 | -41.43416 | 40991 ft | 484 kts | 79° |
| 2026-05-05 02:47 | 49.79134 | -41.33351 | 40992 ft | 484 kts | 80° |
| 2026-05-05 02:48 | 49.80784 | -41.23195 | 40993 ft | 485 kts | 80° |
| 2026-05-05 02:48 | 49.82416 | -41.13082 | 40994 ft | 486 kts | 80° |
| 2026-05-05 02:49 | 49.84030 | -41.03022 | 40995 ft | 486 kts | 80° |
| 2026-05-05 02:49 | 49.85645 | -40.92894 | 41005 ft | 486 kts | 80° |
| 2026-05-05 02:50 | 49.87252 | -40.82749 | 41014 ft | 487 kts | 80° |
| 2026-05-05 02:50 | 49.88855 | -40.72575 | 41018 ft | 488 kts | 79° |
| 2026-05-05 02:51 | 49.90453 | -40.62364 | 41018 ft | 488 kts | 79° |
| 2026-05-05 02:51 | 49.92050 | -40.52100 | 41018 ft | 487 kts | 79° |
| 2026-05-05 02:52 | 49.93626 | -40.41904 | 41018 ft | 488 kts | 79° |
| 2026-05-05 02:52 | 49.95195 | -40.31690 | 41018 ft | 488 kts | 80° |
| 2026-05-05 02:53 | 49.96753 | -40.21480 | 41018 ft | 487 kts | 80° |
| 2026-05-05 02:53 | 49.98303 | -40.11261 | 41018 ft | 487 kts | 80° |
| 2026-05-05 02:54 | 49.99935 | -40.01070 | 41023 ft | 489 kts | 75° |
| 2026-05-05 02:54 | 50.01901 | -39.92840 | 41033 ft | 491 kts | 72° |
| 2026-05-05 02:55 | 50.04726 | -39.81316 | 41045 ft | 493 kts | 71° |
| 2026-05-05 02:55 | 50.07219 | -39.71339 | 41045 ft | 492 kts | 71° |
| 2026-05-05 02:56 | 50.09675 | -39.61442 | 41045 ft | 492 kts | 71° |
| 2026-05-05 02:56 | 50.12125 | -39.51548 | 41045 ft | 491 kts | 71° |
| 2026-05-05 02:57 | 50.14568 | -39.41644 | 41045 ft | 492 kts | 71° |
| 2026-05-05 02:57 | 50.17003 | -39.31727 | 41045 ft | 491 kts | 71° |
| 2026-05-05 02:58 | 50.19429 | -39.21805 | 41045 ft | 492 kts | 71° |
| 2026-05-05 02:58 | 50.21850 | -39.11857 | 41045 ft | 492 kts | 71° |
| 2026-05-05 02:59 | 50.24259 | -39.01920 | 41052 ft | 491 kts | 71° |
| 2026-05-05 02:59 | 50.26660 | -38.91971 | 41059 ft | 491 kts | 70° |
| 2026-05-05 03:00 | 50.29057 | -38.81997 | 41064 ft | 492 kts | 70° |
| 2026-05-05 03:00 | 50.31445 | -38.72010 | 41064 ft | 492 kts | 70° |
| 2026-05-05 03:01 | 50.33824 | -38.62019 | 41064 ft | 491 kts | 70° |
| 2026-05-05 03:01 | 50.36190 | -38.52036 | 41064 ft | 491 kts | 70° |
| 2026-05-05 03:02 | 50.38565 | -38.41967 | 41064 ft | 491 kts | 70° |
| 2026-05-05 03:02 | 50.40519 | -38.33649 | 41063 ft | 492 kts | 70° |
| 2026-05-05 03:03 | 50.43262 | -38.21915 | 41064 ft | 491 kts | 70° |
| 2026-05-05 03:03 | 50.45596 | -38.11881 | 41066 ft | 491 kts | 70° |
| 2026-05-05 03:04 | 50.47921 | -38.01837 | 41073 ft | 491 kts | 70° |
| 2026-05-05 03:04 | 50.50238 | -37.91783 | 41081 ft | 492 kts | 70° |
| 2026-05-05 03:05 | 50.52550 | -37.81702 | 41082 ft | 492 kts | 70° |
| 2026-05-05 03:05 | 50.54852 | -37.71617 | 41082 ft | 492 kts | 70° |
| 2026-05-05 03:06 | 50.57144 | -37.61524 | 41082 ft | 491 kts | 70° |
| 2026-05-05 03:06 | 50.59427 | -37.51430 | 41082 ft | 491 kts | 69° |
| 2026-05-05 03:07 | 50.61702 | -37.41313 | 41082 ft | 492 kts | 69° |
| 2026-05-05 03:07 | 50.63972 | -37.31176 | 41082 ft | 492 kts | 70° |
| 2026-05-05 03:08 | 50.66231 | -37.21041 | 41082 ft | 492 kts | 70° |
| 2026-05-05 03:08 | 50.68478 | -37.10905 | 41082 ft | 491 kts | 70° |
| 2026-05-05 03:09 | 50.70715 | -37.00772 | 41082 ft | 492 kts | 69° |
| 2026-05-05 03:09 | 50.72947 | -36.90608 | 41082 ft | 492 kts | 69° |
| 2026-05-05 03:10 | 50.75176 | -36.80410 | 41082 ft | 493 kts | 69° |
| 2026-05-05 03:10 | 50.77393 | -36.70216 | 41082 ft | 492 kts | 69° |
| 2026-05-05 03:11 | 50.79595 | -36.60037 | 41082 ft | 491 kts | 69° |
| 2026-05-05 03:11 | 50.81788 | -36.49855 | 41082 ft | 491 kts | 69° |
| 2026-05-05 03:12 | 50.83976 | -36.39644 | 41082 ft | 492 kts | 69° |
| 2026-05-05 03:12 | 50.86158 | -36.29409 | 41082 ft | 493 kts | 69° |
| 2026-05-05 03:13 | 50.88332 | -36.19160 | 41084 ft | 493 kts | 69° |
| 2026-05-05 03:13 | 50.90496 | -36.08907 | 41092 ft | 492 kts | 69° |
| 2026-05-05 03:14 | 50.92649 | -35.98652 | 41100 ft | 492 kts | 69° |
| 2026-05-05 03:14 | 50.94787 | -35.88415 | 41100 ft | 489 kts | 69° |
| 2026-05-05 03:15 | 50.96909 | -35.78206 | 41101 ft | 489 kts | 70° |
| 2026-05-05 03:15 | 50.99030 | -35.67942 | 41100 ft | 493 kts | 70° |
| 2026-05-05 03:16 | 51.01149 | -35.57645 | 41100 ft | 492 kts | 70° |
| 2026-05-05 03:16 | 51.03256 | -35.47353 | 41101 ft | 491 kts | 70° |
| 2026-05-05 03:17 | 51.05347 | -35.37078 | 41101 ft | 490 kts | 70° |
| 2026-05-05 03:17 | 51.07427 | -35.26808 | 41101 ft | 490 kts | 71° |
| 2026-05-05 03:18 | 51.09501 | -35.16518 | 41101 ft | 490 kts | 70° |
| 2026-05-05 03:18 | 51.11562 | -35.06232 | 41101 ft | 489 kts | 70° |
| 2026-05-05 03:19 | 51.14623 | -34.90859 | 41145 ft | 488 kts | 70° |
| 2026-05-05 03:19 | 51.16655 | -34.80586 | 41184 ft | 488 kts | 70° |
| 2026-05-05 03:20 | 51.18681 | -34.70291 | 41192 ft | 489 kts | 70° |
| 2026-05-05 03:20 | 51.20695 | -34.60001 | 41192 ft | 487 kts | 70° |
| 2026-05-05 03:21 | 51.22694 | -34.49731 | 41192 ft | 486 kts | 70° |
| 2026-05-05 03:21 | 51.24681 | -34.39470 | 41192 ft | 485 kts | 70° |
| 2026-05-05 03:22 | 51.26657 | -34.29209 | 41192 ft | 485 kts | 70° |
| 2026-05-05 03:22 | 51.28627 | -34.18928 | 41192 ft | 486 kts | 70° |
| 2026-05-05 03:23 | 51.30601 | -34.08564 | 41192 ft | 486 kts | 70° |
| 2026-05-05 03:23 | 51.32554 | -33.98255 | 41198 ft | 486 kts | 70° |
| 2026-05-05 03:24 | 51.34490 | -33.87975 | 41206 ft | 484 kts | 70° |
| 2026-05-05 03:24 | 51.36416 | -33.77705 | 41210 ft | 484 kts | 70° |
| 2026-05-05 03:25 | 51.38331 | -33.67432 | 41210 ft | 483 kts | 70° |
| 2026-05-05 03:25 | 51.40236 | -33.57156 | 41210 ft | 483 kts | 70° |
| 2026-05-05 03:26 | 51.42133 | -33.46861 | 41210 ft | 483 kts | 70° |
| 2026-05-05 03:26 | 51.44021 | -33.36559 | 41210 ft | 483 kts | 70° |
| 2026-05-05 03:27 | 51.45900 | -33.26250 | 41210 ft | 483 kts | 70° |
| 2026-05-05 03:27 | 51.47769 | -33.15938 | 41210 ft | 482 kts | 70° |
| 2026-05-05 03:28 | 51.49625 | -33.05637 | 41210 ft | 482 kts | 70° |
| 2026-05-05 03:28 | 51.51469 | -32.95344 | 41209 ft | 481 kts | 70° |
| 2026-05-05 03:29 | 51.53302 | -32.85058 | 41211 ft | 480 kts | 70° |
| 2026-05-05 03:29 | 51.55124 | -32.74775 | 41214 ft | 480 kts | 70° |
| 2026-05-05 03:30 | 51.56937 | -32.64484 | 41217 ft | 480 kts | 70° |
| 2026-05-05 03:30 | 51.58736 | -32.54210 | 41220 ft | 479 kts | 70° |
| 2026-05-05 03:31 | 51.60523 | -32.43950 | 41223 ft | 478 kts | 70° |
| 2026-05-05 03:31 | 51.61996 | -32.35445 | 41225 ft | 478 kts | 70° |
| 2026-05-05 03:32 | 51.64066 | -32.23424 | 41229 ft | 478 kts | 71° |
| 2026-05-05 03:32 | 51.65825 | -32.13146 | 41232 ft | 477 kts | 71° |
| 2026-05-05 03:33 | 51.67571 | -32.02882 | 41235 ft | 476 kts | 71° |
| 2026-05-05 03:33 | 51.69305 | -31.92623 | 41236 ft | 476 kts | 71° |
| 2026-05-05 03:34 | 51.71034 | -31.82350 | 41236 ft | 476 kts | 71° |
| 2026-05-05 03:34 | 51.72751 | -31.72068 | 41236 ft | 477 kts | 71° |
| 2026-05-05 03:35 | 51.74462 | -31.61771 | 41236 ft | 477 kts | 71° |
| 2026-05-05 03:35 | 51.76170 | -31.51428 | 41236 ft | 477 kts | 71° |
| 2026-05-05 03:36 | 51.77866 | -31.41091 | 41236 ft | 477 kts | 71° |
| 2026-05-05 03:36 | 51.79552 | -31.30753 | 41236 ft | 478 kts | 72° |
| 2026-05-05 03:37 | 51.81229 | -31.20416 | 41236 ft | 478 kts | 72° |
| 2026-05-05 03:37 | 51.82901 | -31.10042 | 41236 ft | 479 kts | 72° |
| 2026-05-05 03:38 | 51.84566 | -30.99642 | 41236 ft | 479 kts | 72° |
| 2026-05-05 03:38 | 51.85941 | -30.91008 | 41236 ft | 479 kts | 72° |
| 2026-05-05 03:39 | 51.87870 | -30.78817 | 41236 ft | 479 kts | 72° |
| 2026-05-05 03:39 | 51.89508 | -30.68392 | 41236 ft | 479 kts | 72° |
| 2026-05-05 03:40 | 51.91136 | -30.57964 | 41236 ft | 479 kts | 72° |
| 2026-05-05 03:40 | 51.92755 | -30.47530 | 41236 ft | 479 kts | 72° |
| 2026-05-05 03:41 | 51.94363 | -30.37096 | 41236 ft | 479 kts | 72° |
| 2026-05-05 03:41 | 51.95964 | -30.26651 | 41236 ft | 479 kts | 73° |
| 2026-05-05 03:42 | 51.97558 | -30.16176 | 41243 ft | 480 kts | 73° |
| 2026-05-05 03:42 | 51.99141 | -30.05703 | 41255 ft | 479 kts | 73° |
| 2026-05-05 03:43 | 52.01263 | -29.95582 | 41263 ft | 474 kts | 64° |
| 2026-05-05 03:43 | 52.03666 | -29.85640 | 41263 ft | 474 kts | 64° |
| 2026-05-05 03:44 | 52.06131 | -29.75737 | 41263 ft | 474 kts | 64° |
| 2026-05-05 03:44 | 52.08591 | -29.65840 | 41263 ft | 474 kts | 64° |
| 2026-05-05 03:45 | 52.11046 | -29.55926 | 41263 ft | 474 kts | 64° |
| 2026-05-05 03:45 | 52.13497 | -29.46006 | 41263 ft | 474 kts | 64° |
| 2026-05-05 03:46 | 52.15935 | -29.36091 | 41263 ft | 472 kts | 64° |
| 2026-05-05 03:46 | 52.18361 | -29.26190 | 41263 ft | 473 kts | 65° |
| 2026-05-05 03:47 | 52.20802 | -29.16186 | 41263 ft | 473 kts | 65° |
| 2026-05-05 03:47 | 52.23217 | -29.06240 | 41263 ft | 473 kts | 65° |
| 2026-05-05 03:48 | 52.25621 | -28.96297 | 41263 ft | 473 kts | 65° |
| 2026-05-05 03:48 | 52.28016 | -28.86343 | 41263 ft | 473 kts | 65° |
| 2026-05-05 03:49 | 52.30404 | -28.76377 | 41263 ft | 473 kts | 65° |
| 2026-05-05 03:49 | 52.32782 | -28.66405 | 41263 ft | 472 kts | 65° |
| 2026-05-05 03:50 | 52.34746 | -28.58135 | 41263 ft | 472 kts | 65° |
| 2026-05-05 03:50 | 52.37510 | -28.46447 | 41263 ft | 472 kts | 65° |
| 2026-05-05 03:51 | 52.39863 | -28.36442 | 41263 ft | 472 kts | 65° |
| 2026-05-05 03:51 | 52.42209 | -28.26419 | 41263 ft | 473 kts | 66° |
| 2026-05-05 03:52 | 52.44547 | -28.16386 | 41263 ft | 473 kts | 66° |
| 2026-05-05 03:52 | 52.46875 | -28.06352 | 41263 ft | 473 kts | 66° |
| 2026-05-05 03:53 | 52.49196 | -27.96294 | 41263 ft | 473 kts | 66° |
| 2026-05-05 03:53 | 52.51509 | -27.86228 | 41263 ft | 473 kts | 66° |
| 2026-05-05 03:54 | 52.53812 | -27.76154 | 41263 ft | 473 kts | 66° |
| 2026-05-05 03:54 | 52.56109 | -27.66063 | 41263 ft | 473 kts | 66° |
| 2026-05-05 03:55 | 52.58396 | -27.55963 | 41263 ft | 473 kts | 66° |
| 2026-05-05 03:55 | 52.60677 | -27.45847 | 41263 ft | 473 kts | 66° |
| 2026-05-05 03:56 | 52.62957 | -27.35685 | 41263 ft | 473 kts | 66° |
| 2026-05-05 03:56 | 52.65226 | -27.25519 | 41264 ft | 473 kts | 67° |
| 2026-05-05 03:57 | 52.67109 | -27.17047 | 41268 ft | 473 kts | 67° |
| 2026-05-05 03:57 | 52.69745 | -27.05132 | 41294 ft | 473 kts | 67° |
| 2026-05-05 03:58 | 52.71608 | -26.96663 | 41330 ft | 473 kts | 67° |
| 2026-05-05 03:58 | 52.74207 | -26.84798 | 41372 ft | 474 kts | 67° |
| 2026-05-05 03:59 | 52.76452 | -26.74496 | 41371 ft | 474 kts | 67° |
| 2026-05-05 03:59 | 52.78670 | -26.64259 | 41371 ft | 474 kts | 67° |
| 2026-05-05 04:00 | 52.80874 | -26.54037 | 41371 ft | 473 kts | 67° |
| 2026-05-05 04:00 | 52.83066 | -26.43822 | 41371 ft | 473 kts | 67° |
| 2026-05-05 04:01 | 52.85253 | -26.33584 | 41371 ft | 473 kts | 68° |
| 2026-05-05 04:01 | 52.87437 | -26.23306 | 41371 ft | 474 kts | 68° |
| 2026-05-05 04:02 | 52.89594 | -26.13101 | 41370 ft | 474 kts | 68° |
| 2026-05-05 04:02 | 52.91405 | -26.04496 | 41360 ft | 474 kts | 68° |
| 2026-05-05 04:03 | 52.93918 | -25.92490 | 41346 ft | 475 kts | 68° |
| 2026-05-05 04:03 | 52.96066 | -25.82168 | 41344 ft | 474 kts | 68° |
| 2026-05-05 04:04 | 52.97857 | -25.73528 | 41344 ft | 474 kts | 68° |
| 2026-05-05 04:04 | 53.00331 | -25.61523 | 41344 ft | 474 kts | 68° |
| 2026-05-05 04:05 | 53.02453 | -25.51168 | 41344 ft | 474 kts | 68° |
| 2026-05-05 04:05 | 53.04564 | -25.40817 | 41344 ft | 474 kts | 68° |
| 2026-05-05 04:06 | 53.06323 | -25.32150 | 41344 ft | 475 kts | 69° |
| 2026-05-05 04:06 | 53.08762 | -25.20068 | 41344 ft | 475 kts | 69° |
| 2026-05-05 04:07 | 53.10516 | -25.11336 | 41320 ft | 476 kts | 69° |
| 2026-05-05 04:07 | 53.12937 | -24.99213 | 41279 ft | 476 kts | 69° |
| 2026-05-05 04:08 | 53.14670 | -24.90490 | 41263 ft | 475 kts | 69° |
| 2026-05-05 04:08 | 53.17065 | -24.78369 | 41263 ft | 474 kts | 69° |
| 2026-05-05 04:09 | 53.19116 | -24.67930 | 41263 ft | 475 kts | 69° |
| 2026-05-05 04:09 | 53.21163 | -24.57455 | 41263 ft | 476 kts | 69° |
| 2026-05-05 04:10 | 53.23204 | -24.46954 | 41263 ft | 476 kts | 69° |
| 2026-05-05 04:10 | 53.25232 | -24.36463 | 41263 ft | 475 kts | 69° |
| 2026-05-05 04:11 | 53.27237 | -24.26027 | 41263 ft | 475 kts | 70° |
| 2026-05-05 04:11 | 53.29242 | -24.15542 | 41263 ft | 475 kts | 70° |
| 2026-05-05 04:12 | 53.31240 | -24.05029 | 41263 ft | 475 kts | 70° |
| 2026-05-05 04:12 | 53.32890 | -23.96308 | 41263 ft | 475 kts | 70° |
| 2026-05-05 04:13 | 53.35207 | -23.83988 | 41263 ft | 475 kts | 70° |
| 2026-05-05 04:13 | 53.37177 | -23.73452 | 41263 ft | 475 kts | 70° |
| 2026-05-05 04:14 | 53.39137 | -23.62911 | 41263 ft | 475 kts | 70° |
| 2026-05-05 04:14 | 53.40756 | -23.54158 | 41263 ft | 475 kts | 70° |
| 2026-05-05 04:15 | 53.42700 | -23.43590 | 41263 ft | 475 kts | 70° |
| 2026-05-05 04:15 | 53.44960 | -23.31233 | 41263 ft | 475 kts | 71° |
| 2026-05-05 04:16 | 53.46881 | -23.20662 | 41263 ft | 475 kts | 71° |
| 2026-05-05 04:16 | 53.48793 | -23.10077 | 41263 ft | 476 kts | 71° |
| 2026-05-05 04:17 | 53.50699 | -22.99467 | 41263 ft | 475 kts | 71° |
| 2026-05-05 04:17 | 53.52287 | -22.90579 | 41263 ft | 475 kts | 71° |
| 2026-05-05 04:18 | 53.54482 | -22.78220 | 41263 ft | 475 kts | 71° |
| 2026-05-05 04:18 | 53.56359 | -22.67584 | 41263 ft | 475 kts | 71° |
| 2026-05-05 04:19 | 53.58224 | -22.56959 | 41263 ft | 474 kts | 71° |
| 2026-05-05 04:19 | 53.60090 | -22.46260 | 41263 ft | 475 kts | 71° |
| 2026-05-05 04:20 | 53.61941 | -22.35584 | 41263 ft | 476 kts | 71° |
| 2026-05-05 04:20 | 53.63471 | -22.26708 | 41263 ft | 476 kts | 72° |
| 2026-05-05 04:21 | 53.65604 | -22.14263 | 41263 ft | 475 kts | 72° |
| 2026-05-05 04:21 | 53.67423 | -22.03579 | 41260 ft | 475 kts | 72° |
| 2026-05-05 04:22 | 53.69238 | -21.92855 | 41248 ft | 476 kts | 72° |
| 2026-05-05 04:22 | 53.70746 | -21.83893 | 41238 ft | 476 kts | 72° |
| 2026-05-05 04:23 | 53.72832 | -21.71425 | 41236 ft | 475 kts | 72° |
| 2026-05-05 04:23 | 53.74614 | -21.60696 | 41236 ft | 475 kts | 72° |
| 2026-05-05 04:24 | 53.76388 | -21.49951 | 41236 ft | 475 kts | 72° |
| 2026-05-05 04:25 | 53.78735 | -21.35634 | 41236 ft | 475 kts | 72° |
| 2026-05-05 04:25 | 53.80785 | -21.23028 | 41236 ft | 476 kts | 73° |
| 2026-05-05 04:26 | 53.82239 | -21.14026 | 41236 ft | 475 kts | 73° |
| 2026-05-05 04:26 | 53.84248 | -21.01514 | 41206 ft | 476 kts | 73° |
| 2026-05-05 04:27 | 53.85986 | -20.90617 | 41169 ft | 476 kts | 73° |
| 2026-05-05 04:27 | 53.87407 | -20.81649 | 41155 ft | 475 kts | 73° |
| 2026-05-05 04:28 | 53.89398 | -20.69004 | 41155 ft | 475 kts | 72° |
| 2026-05-05 04:28 | 53.91093 | -20.58166 | 41155 ft | 475 kts | 72° |
| 2026-05-05 04:29 | 53.92770 | -20.47367 | 41157 ft | 475 kts | 72° |
| 2026-05-05 04:29 | 53.94449 | -20.36489 | 41166 ft | 475 kts | 72° |
| 2026-05-05 04:30 | 53.96114 | -20.25627 | 41175 ft | 475 kts | 73° |
| 2026-05-05 04:30 | 53.97492 | -20.16587 | 41182 ft | 475 kts | 73° |
| 2026-05-05 04:31 | 53.99355 | -20.03885 | 41175 ft | 476 kts | 76° |
| 2026-05-05 04:31 | 54.00011 | -19.94515 | 41162 ft | 479 kts | 86° |
| 2026-05-05 04:32 | 54.00246 | -19.81306 | 41155 ft | 478 kts | 85° |
| 2026-05-05 04:32 | 54.00491 | -19.71949 | 41155 ft | 479 kts | 86° |
| 2026-05-05 04:33 | 54.00756 | -19.58740 | 41155 ft | 479 kts | 86° |
| 2026-05-05 04:33 | 54.00961 | -19.47389 | 41155 ft | 479 kts | 86° |
| 2026-05-05 04:34 | 54.01118 | -19.37991 | 41155 ft | 479 kts | 86° |
| 2026-05-05 04:34 | 54.01322 | -19.24781 | 41155 ft | 478 kts | 87° |
| 2026-05-05 04:35 | 54.01458 | -19.15345 | 41159 ft | 478 kts | 87° |
| 2026-05-05 04:35 | 54.01633 | -19.02134 | 41177 ft | 479 kts | 87° |
| 2026-05-05 04:36 | 54.01771 | -18.90868 | 41188 ft | 480 kts | 87° |
| 2026-05-05 04:36 | 54.01898 | -18.79575 | 41188 ft | 479 kts | 87° |
| 2026-05-05 04:37 | 54.01996 | -18.70116 | 41188 ft | 479 kts | 87° |
| 2026-05-05 04:37 | 54.02121 | -18.56917 | 41189 ft | 478 kts | 87° |
| 2026-05-05 04:38 | 54.02215 | -18.45669 | 41189 ft | 478 kts | 87° |
| 2026-05-05 04:38 | 54.02299 | -18.34388 | 41189 ft | 478 kts | 88° |
| 2026-05-05 04:39 | 54.02373 | -18.23104 | 41190 ft | 479 kts | 88° |
| 2026-05-05 04:39 | 54.02437 | -18.11802 | 41167 ft | 479 kts | 88° |
| 2026-05-05 04:40 | 54.02490 | -18.00444 | 41142 ft | 479 kts | 88° |
| 2026-05-05 04:40 | 54.02531 | -17.89201 | 41137 ft | 478 kts | 88° |
| 2026-05-05 04:41 | 54.02563 | -17.77899 | 41137 ft | 479 kts | 88° |
| 2026-05-05 04:41 | 54.02584 | -17.66571 | 41137 ft | 479 kts | 88° |
| 2026-05-05 04:42 | 54.02594 | -17.55294 | 41137 ft | 479 kts | 88° |
| 2026-05-05 04:42 | 54.02593 | -17.43978 | 41137 ft | 479 kts | 88° |
| 2026-05-05 04:43 | 54.02582 | -17.32676 | 41137 ft | 479 kts | 89° |
| 2026-05-05 04:43 | 54.02565 | -17.23278 | 41137 ft | 479 kts | 89° |
| 2026-05-05 04:44 | 54.02529 | -17.10095 | 41137 ft | 479 kts | 89° |
| 2026-05-05 04:44 | 54.02486 | -16.98758 | 41136 ft | 479 kts | 89° |
| 2026-05-05 04:45 | 54.02442 | -16.89291 | 41132 ft | 479 kts | 89° |
| 2026-05-05 04:45 | 54.02380 | -16.77977 | 41128 ft | 478 kts | 89° |
| 2026-05-05 04:46 | 54.02294 | -16.64824 | 41128 ft | 478 kts | 89° |
| 2026-05-05 04:46 | 54.02224 | -16.55437 | 41128 ft | 479 kts | 89° |
| 2026-05-05 04:47 | 54.02130 | -16.44130 | 41128 ft | 478 kts | 89° |
| 2026-05-05 04:47 | 54.02007 | -16.31006 | 41128 ft | 477 kts | 90° |
| 2026-05-05 04:48 | 54.01910 | -16.21564 | 41128 ft | 477 kts | 90° |
| 2026-05-05 04:48 | 54.01785 | -16.10287 | 41128 ft | 478 kts | 90° |
| 2026-05-05 04:49 | 54.01626 | -15.97175 | 41128 ft | 478 kts | 90° |
| 2026-05-05 04:49 | 54.01503 | -15.87725 | 41128 ft | 478 kts | 90° |
| 2026-05-05 04:50 | 54.01347 | -15.76534 | 41128 ft | 478 kts | 90° |
| 2026-05-05 04:50 | 54.01179 | -15.65265 | 41128 ft | 478 kts | 90° |
| 2026-05-05 04:51 | 54.00968 | -15.52031 | 41128 ft | 478 kts | 90° |
| 2026-05-05 04:51 | 54.00777 | -15.40733 | 41128 ft | 478 kts | 90° |
| 2026-05-05 04:52 | 54.00576 | -15.29475 | 41128 ft | 478 kts | 91° |
| 2026-05-05 04:52 | 54.00367 | -15.18276 | 41128 ft | 478 kts | 91° |
| 2026-05-05 04:53 | 54.00145 | -15.06999 | 41126 ft | 478 kts | 91° |
| 2026-05-05 04:53 | 53.99962 | -14.97558 | 41121 ft | 478 kts | 90° |
| 2026-05-05 04:54 | 54.00023 | -14.84466 | 41114 ft | 476 kts | 88° |
| 2026-05-05 04:54 | 54.00071 | -14.73194 | 41114 ft | 478 kts | 88° |
| 2026-05-05 04:55 | 54.00090 | -14.61908 | 41114 ft | 477 kts | 88° |
| 2026-05-05 04:55 | 54.00100 | -14.50676 | 41114 ft | 477 kts | 88° |
| 2026-05-05 04:56 | 54.00098 | -14.39740 | 41114 ft | 477 kts | 88° |
| 2026-05-05 04:56 | 54.00087 | -14.30254 | 41114 ft | 477 kts | 89° |
| 2026-05-05 04:57 | 54.00059 | -14.17127 | 41114 ft | 477 kts | 89° |
| 2026-05-05 04:57 | 54.00038 | -14.07764 | 41114 ft | 477 kts | 88° |
| 2026-05-05 04:58 | 54.01419 | -13.94937 | 41113 ft | 472 kts | 66° |
| 2026-05-05 04:58 | 54.03697 | -13.86519 | 41109 ft | 472 kts | 62° |
| 2026-05-05 04:59 | 54.06903 | -13.74687 | 41103 ft | 472 kts | 63° |
| 2026-05-05 04:59 | 54.09155 | -13.66263 | 41101 ft | 472 kts | 63° |
| 2026-05-05 05:00 | 54.11887 | -13.56069 | 41101 ft | 472 kts | 63° |
| 2026-05-05 05:00 | 54.15041 | -13.44241 | 41101 ft | 472 kts | 63° |
| 2026-05-05 05:01 | 54.17746 | -13.34060 | 41101 ft | 472 kts | 64° |
| 2026-05-05 05:01 | 54.20438 | -13.23882 | 41101 ft | 472 kts | 64° |
| 2026-05-05 05:02 | 54.23126 | -13.13673 | 41101 ft | 472 kts | 64° |
| 2026-05-05 05:02 | 54.25348 | -13.05202 | 41101 ft | 472 kts | 64° |
| 2026-05-05 05:03 | 54.28471 | -12.93240 | 41101 ft | 471 kts | 64° |
| 2026-05-05 05:03 | 54.31128 | -12.83016 | 41101 ft | 471 kts | 64° |
| 2026-05-05 05:04 | 54.33329 | -12.74509 | 41101 ft | 471 kts | 64° |
| 2026-05-05 05:04 | 54.35974 | -12.64246 | 41101 ft | 471 kts | 64° |
| 2026-05-05 05:05 | 54.39048 | -12.52257 | 41101 ft | 471 kts | 64° |
| 2026-05-05 05:05 | 54.41249 | -12.43634 | 41101 ft | 471 kts | 64° |
| 2026-05-05 05:06 | 54.44285 | -12.31685 | 41101 ft | 471 kts | 65° |
| 2026-05-05 05:06 | 54.46458 | -12.23095 | 41101 ft | 471 kts | 65° |
| 2026-05-05 05:07 | 54.49050 | -12.12801 | 41101 ft | 471 kts | 65° |
| 2026-05-05 05:07 | 54.51639 | -12.02473 | 41101 ft | 471 kts | 65° |
| 2026-05-05 05:08 | 54.54646 | -11.90414 | 41101 ft | 471 kts | 65° |
| 2026-05-05 05:08 | 54.57216 | -11.80061 | 41101 ft | 471 kts | 65° |
| 2026-05-05 05:09 | 54.59360 | -11.71379 | 41101 ft | 471 kts | 65° |
| 2026-05-05 05:09 | 54.62333 | -11.59292 | 41101 ft | 472 kts | 65° |
| 2026-05-05 05:10 | 54.64882 | -11.48874 | 41101 ft | 472 kts | 65° |
| 2026-05-05 05:10 | 54.67009 | -11.40141 | 41101 ft | 472 kts | 65° |
| 2026-05-05 05:11 | 54.69952 | -11.28004 | 41101 ft | 472 kts | 66° |
| 2026-05-05 05:11 | 54.72065 | -11.19247 | 41101 ft | 473 kts | 66° |
| 2026-05-05 05:12 | 54.74587 | -11.08749 | 41101 ft | 473 kts | 66° |
| 2026-05-05 05:12 | 54.77098 | -10.98244 | 41101 ft | 473 kts | 66° |
| 2026-05-05 05:13 | 54.79584 | -10.87793 | 41101 ft | 472 kts | 66° |
| 2026-05-05 05:13 | 54.82076 | -10.77266 | 41101 ft | 472 kts | 66° |
| 2026-05-05 05:14 | 54.84557 | -10.66737 | 41101 ft | 473 kts | 66° |
| 2026-05-05 05:14 | 54.87437 | -10.54448 | 41101 ft | 473 kts | 66° |
| 2026-05-05 05:15 | 54.89894 | -10.43905 | 41101 ft | 473 kts | 66° |
| 2026-05-05 05:15 | 54.91950 | -10.35045 | 41101 ft | 473 kts | 66° |
| 2026-05-05 05:16 | 54.94402 | -10.24434 | 41101 ft | 473 kts | 67° |
| 2026-05-05 05:16 | 54.97230 | -10.12123 | 41101 ft | 473 kts | 67° |
| 2026-05-05 05:17 | 54.99211 | -10.03256 | 41100 ft | 473 kts | 69° |
| 2026-05-05 05:17 | 55.00811 | -9.92121 | 41101 ft | 476 kts | 77° |
| 2026-05-05 05:18 | 55.02374 | -9.78922 | 41101 ft | 476 kts | 76° |
| 2026-05-05 05:18 | 55.03505 | -9.69548 | 41101 ft | 476 kts | 77° |
| 2026-05-05 05:19 | 55.04818 | -9.58250 | 41100 ft | 476 kts | 77° |
| 2026-05-05 05:19 | 55.06323 | -9.45115 | 41097 ft | 476 kts | 77° |
| 2026-05-05 05:20 | 55.07396 | -9.35632 | 41095 ft | 476 kts | 77° |
| 2026-05-05 05:20 | 55.08655 | -9.24381 | 41093 ft | 476 kts | 78° |
| 2026-05-05 05:21 | 55.09910 | -9.13067 | 41091 ft | 476 kts | 78° |
| 2026-05-05 05:21 | 55.11167 | -9.01612 | 41083 ft | 477 kts | 78° |
| 2026-05-05 05:22 | 55.12398 | -8.90287 | 41076 ft | 476 kts | 78° |
| 2026-05-05 05:22 | 55.13625 | -8.78894 | 41074 ft | 476 kts | 78° |
| 2026-05-05 05:23 | 55.14836 | -8.67548 | 41074 ft | 477 kts | 78° |
| 2026-05-05 05:23 | 55.16036 | -8.56194 | 41074 ft | 477 kts | 78° |
| 2026-05-05 05:24 | 55.17233 | -8.44767 | 41074 ft | 478 kts | 78° |
| 2026-05-05 05:24 | 55.18415 | -8.33363 | 41074 ft | 478 kts | 79° |
| 2026-05-05 05:25 | 55.19788 | -8.19986 | 41074 ft | 478 kts | 79° |
| 2026-05-05 05:25 | 55.20753 | -8.10489 | 41074 ft | 478 kts | 79° |
| 2026-05-05 05:26 | 55.21909 | -7.99012 | 41074 ft | 478 kts | 79° |
| 2026-05-05 05:26 | 55.23046 | -7.87608 | 41074 ft | 478 kts | 79° |
| 2026-05-05 05:27 | 55.24176 | -7.76162 | 41074 ft | 478 kts | 79° |
| 2026-05-05 05:27 | 55.25853 | -7.58960 | 41074 ft | 478 kts | 79° |
| 2026-05-05 05:28 | 55.26960 | -7.47464 | 41074 ft | 478 kts | 79° |
| 2026-05-05 05:28 | 55.28051 | -7.36017 | 41074 ft | 478 kts | 79° |
| 2026-05-05 05:29 | 55.29134 | -7.24525 | 41074 ft | 478 kts | 80° |
| 2026-05-05 05:29 | 55.30386 | -7.11095 | 41074 ft | 478 kts | 80° |
| 2026-05-05 05:30 | 55.31269 | -7.01512 | 41074 ft | 478 kts | 80° |
| 2026-05-05 05:30 | 55.32321 | -6.89998 | 41074 ft | 478 kts | 80° |
| 2026-05-05 05:31 | 55.33363 | -6.78457 | 41074 ft | 479 kts | 80° |
| 2026-05-05 05:31 | 55.34563 | -6.65012 | 41074 ft | 479 kts | 80° |
| 2026-05-05 05:32 | 55.35410 | -6.55426 | 41074 ft | 479 kts | 80° |
| 2026-05-05 05:32 | 55.36589 | -6.41904 | 41074 ft | 480 kts | 80° |
| 2026-05-05 05:33 | 55.37587 | -6.30343 | 41074 ft | 480 kts | 81° |
| 2026-05-05 05:33 | 55.38575 | -6.18738 | 41074 ft | 481 kts | 81° |
| 2026-05-05 05:34 | 55.39391 | -6.09068 | 41074 ft | 481 kts | 81° |
| 2026-05-05 05:34 | 55.40525 | -5.95457 | 41074 ft | 480 kts | 81° |
| 2026-05-05 05:35 | 55.41475 | -5.83913 | 41074 ft | 480 kts | 81° |
| 2026-05-05 05:35 | 55.42368 | -5.72270 | 41073 ft | 480 kts | 84° |
| 2026-05-05 05:36 | 55.42273 | -5.60570 | 41074 ft | 481 kts | 98° |
| 2026-05-05 05:36 | 55.41077 | -5.50962 | 41074 ft | 481 kts | 103° |
| 2026-05-05 05:37 | 55.40303 | -5.45266 | 40912 ft | 481 kts | 103° |
| 2026-05-05 05:37 | 55.39560 | -5.39501 | 39871 ft | 488 kts | 102° |
| 2026-05-05 05:37 | 55.38818 | -5.33697 | 39238 ft | 484 kts | 103° |
| 2026-05-05 05:37 | 55.38075 | -5.28011 | 38542 ft | 482 kts | 103° |
| 2026-05-05 05:38 | 55.37064 | -5.20427 | 37499 ft | 483 kts | 103° |
| 2026-05-05 05:38 | 55.36293 | -5.14684 | 36677 ft | 483 kts | 103° |
| 2026-05-05 05:38 | 55.35785 | -5.10910 | 36134 ft | 483 kts | 103° |
| 2026-05-05 05:38 | 55.35014 | -5.05200 | 35242 ft | 485 kts | 103° |
| 2026-05-05 05:39 | 55.34226 | -4.99398 | 34295 ft | 488 kts | 104° |
| 2026-05-05 05:39 | 55.33178 | -4.91727 | 33005 ft | 491 kts | 103° |
| 2026-05-05 05:39 | 55.32713 | -4.87800 | 32350 ft | 492 kts | 100° |
| 2026-05-05 05:39 | 55.32207 | -4.79847 | 30983 ft | 494 kts | 92° |
| 2026-05-05 05:40 | 55.32297 | -4.73869 | 29937 ft | 495 kts | 84° |
| 2026-05-05 05:40 | 55.32619 | -4.69908 | 29213 ft | 496 kts | 78° |
| 2026-05-05 05:40 | 55.33622 | -4.62063 | 27716 ft | 498 kts | 75° |
| 2026-05-05 05:40 | 55.34154 | -4.58145 | 26927 ft | 499 kts | 75° |
| 2026-05-05 05:41 | 55.35189 | -4.50302 | 25563 ft | 496 kts | 76° |
| 2026-05-05 05:41 | 55.35698 | -4.46385 | 25077 ft | 490 kts | 76° |
| 2026-05-05 05:41 | 55.36455 | -4.40584 | 24247 ft | 483 kts | 75° |
| 2026-05-05 05:41 | 55.37202 | -4.34892 | 23418 ft | 478 kts | 76° |
| 2026-05-05 05:42 | 55.37941 | -4.29260 | 22591 ft | 472 kts | 76° |
| 2026-05-05 05:42 | 55.38670 | -4.23689 | 21770 ft | 466 kts | 76° |
| 2026-05-05 05:42 | 55.39628 | -4.16339 | 20679 ft | 459 kts | 76° |
| 2026-05-05 05:42 | 55.40094 | -4.12752 | 20147 ft | 456 kts | 76° |
| 2026-05-05 05:43 | 55.40798 | -4.07327 | 19324 ft | 451 kts | 76° |
| 2026-05-05 05:43 | 55.41481 | -4.02047 | 18527 ft | 446 kts | 76° |
| 2026-05-05 05:43 | 55.42385 | -3.95031 | 17463 ft | 440 kts | 76° |
| 2026-05-05 05:43 | 55.43056 | -3.89800 | 16667 ft | 435 kts | 76° |
| 2026-05-05 05:44 | 55.43494 | -3.86374 | 16171 ft | 431 kts | 76° |
| 2026-05-05 05:44 | 55.44143 | -3.81288 | 15402 ft | 426 kts | 76° |
| 2026-05-05 05:44 | 55.44788 | -3.76220 | 14672 ft | 420 kts | 76° |
| 2026-05-05 05:44 | 55.45414 | -3.71274 | 13963 ft | 415 kts | 76° |
| 2026-05-05 05:45 | 55.46037 | -3.66343 | 13196 ft | 411 kts | 76° |
| 2026-05-05 05:45 | 55.46655 | -3.61442 | 12494 ft | 405 kts | 76° |
| 2026-05-05 05:45 | 55.47247 | -3.56709 | 12333 ft | 385 kts | 76° |
| 2026-05-05 05:45 | 55.47987 | -3.50783 | 12084 ft | 363 kts | 75° |
| 2026-05-05 05:46 | 55.48515 | -3.46543 | 11900 ft | 348 kts | 75° |
| 2026-05-05 05:46 | 55.48855 | -3.43807 | 11781 ft | 339 kts | 75° |
| 2026-05-05 05:46 | 55.49361 | -3.39837 | 11607 ft | 326 kts | 72° |
| 2026-05-05 05:46 | 55.50265 | -3.36309 | 11396 ft | 310 kts | 50° |
| 2026-05-05 05:47 | 55.51838 | -3.33835 | 11069 ft | 297 kts | 27° |
| 2026-05-05 05:47 | 55.53668 | -3.32258 | 10745 ft | 290 kts | 22° |
| 2026-05-05 05:47 | 55.55455 | -3.30742 | 10429 ft | 285 kts | 23° |
| 2026-05-05 05:47 | 55.57243 | -3.29208 | 10115 ft | 281 kts | 23° |
| 2026-05-05 05:48 | 55.58987 | -3.27742 | 9810 ft | 276 kts | 23° |
| 2026-05-05 05:48 | 55.60715 | -3.26295 | 9509 ft | 272 kts | 23° |
| 2026-05-05 05:48 | 55.62199 | -3.25051 | 9250 ft | 268 kts | 23° |
| 2026-05-05 05:48 | 55.63869 | -3.23655 | 8959 ft | 264 kts | 23° |
| 2026-05-05 05:49 | 55.65520 | -3.22277 | 8671 ft | 260 kts | 23° |
| 2026-05-05 05:49 | 55.67117 | -3.20944 | 8393 ft | 256 kts | 23° |
| 2026-05-05 05:49 | 55.68729 | -3.19598 | 8112 ft | 252 kts | 23° |
| 2026-05-05 05:49 | 55.70826 | -3.17843 | 7746 ft | 248 kts | 24° |
| 2026-05-05 05:50 | 55.71843 | -3.16961 | 7567 ft | 246 kts | 24° |
| 2026-05-05 05:50 | 55.73354 | -3.15612 | 7300 ft | 242 kts | 24° |
| 2026-05-05 05:50 | 55.74854 | -3.14255 | 7035 ft | 239 kts | 25° |
| 2026-05-05 05:50 | 55.76327 | -3.12912 | 6773 ft | 236 kts | 25° |
| 2026-05-05 05:51 | 55.77764 | -3.11598 | 6501 ft | 234 kts | 25° |
| 2026-05-05 05:51 | 55.79684 | -3.09839 | 6152 ft | 231 kts | 25° |
| 2026-05-05 05:51 | 55.80614 | -3.08987 | 5986 ft | 229 kts | 25° |
| 2026-05-05 05:51 | 55.82033 | -3.07689 | 5733 ft | 226 kts | 25° |
| 2026-05-05 05:52 | 55.83404 | -3.06433 | 5489 ft | 223 kts | 24° |
| 2026-05-05 05:52 | 55.85260 | -3.04796 | 5155 ft | 220 kts | 17° |
| 2026-05-05 05:52 | 55.86241 | -3.04371 | 5000 ft | 217 kts | 7° |
| 2026-05-05 05:52 | 55.87720 | -3.03943 | 4763 ft | 217 kts | 7° |
| 2026-05-05 05:53 | 55.89188 | -3.03477 | 4527 ft | 216 kts | 8° |
| 2026-05-05 05:53 | 55.90568 | -3.03038 | 4305 ft | 215 kts | 8° |
| 2026-05-05 05:53 | 55.92099 | -3.02548 | 4124 ft | 210 kts | 8° |
| 2026-05-05 05:53 | 55.93522 | -3.02091 | 4071 ft | 205 kts | 7° |
| 2026-05-05 05:54 | 55.94899 | -3.01779 | 3965 ft | 197 kts | 355° |
| 2026-05-05 05:54 | 55.96227 | -3.02084 | 3865 ft | 187 kts | 350° |
| 2026-05-05 05:54 | 55.97486 | -3.02386 | 3765 ft | 183 kts | 350° |
| 2026-05-05 05:54 | 55.98750 | -3.02681 | 3664 ft | 181 kts | 350° |
| 2026-05-05 05:55 | 55.99975 | -3.02963 | 3567 ft | 181 kts | 351° |
| 2026-05-05 05:55 | 56.01239 | -3.03261 | 3468 ft | 181 kts | 348° |
| 2026-05-05 05:55 | 56.02543 | -3.04840 | 3347 ft | 178 kts | 293° |
| 2026-05-05 05:55 | 56.02648 | -3.07068 | 3266 ft | 182 kts | 269° |
| 2026-05-05 05:56 | 56.02669 | -3.08575 | 3189 ft | 180 kts | 284° |
| 2026-05-05 05:56 | 56.03080 | -3.10629 | 3107 ft | 173 kts | 290° |
| 2026-05-05 05:56 | 56.03118 | -3.12704 | 2998 ft | 165 kts | 252° |
| 2026-05-05 05:56 | 56.02571 | -3.14457 | 2845 ft | 158 kts | 244° |
| 2026-05-05 05:57 | 56.02068 | -3.16154 | 2642 ft | 154 kts | 244° |
| 2026-05-05 05:57 | 56.01537 | -3.17800 | 2438 ft | 152 kts | 242° |
| 2026-05-05 05:57 | 56.00992 | -3.19440 | 2230 ft | 152 kts | 242° |
| 2026-05-05 05:57 | 56.00270 | -3.21596 | 1954 ft | 152 kts | 242° |
| 2026-05-05 05:58 | 55.99909 | -3.22672 | 1815 ft | 152 kts | 242° |
| 2026-05-05 05:58 | 55.99369 | -3.24279 | 1606 ft | 149 kts | 242° |
| 2026-05-05 05:58 | 55.98837 | -3.25862 | 1472 ft | 142 kts | 240° |
| 2026-05-05 05:58 | 55.98359 | -3.27282 | 1222 ft | 124 kts | 240° |
| 2026-05-05 05:59 | 55.97776 | -3.29013 | 998 ft | 122 kts | 240° |
| 2026-05-05 05:59 | 55.97485 | -3.29875 | 890 ft | 121 kts | 239° |
| 2026-05-05 05:59 | 55.97049 | -3.31154 | 732 ft | 122 kts | 240° |
| 2026-05-05 05:59 | 55.96619 | -3.32453 | 575 ft | 121 kts | 240° |
| 2026-05-05 06:00 | 55.96038 | -3.34154 | 355 ft | 121 kts | 240° |
| 2026-05-05 06:00 | 55.95752 | -3.35027 | 240 ft | 120 kts | 240° |
| 2026-05-05 06:00 | 55.95326 | -3.36286 | 112 ft | 115 kts | 240° |
| 2026-05-05 06:00 | 55.94990 | -3.37276 | 100 ft | 55 kts | 239° |
| 2026-05-05 06:01 | 55.94868 | -3.37636 | 101 ft | 28 kts | 239° |
| 2026-05-05 06:01 | 55.94774 | -3.37912 | 103 ft | 24 kts | 239° |
| 2026-05-05 06:01 | 55.94700 | -3.38054 | 105 ft | 11 kts | 173° |
| 2026-05-05 06:01 | 55.94609 | -3.37962 | 105 ft | 11 kts | 145° |
| 2026-05-05 06:02 | 55.94591 | -3.37886 | 104 ft | 10 kts | 77° |
| 2026-05-05 06:02 | 55.94651 | -3.37705 | 103 ft | 18 kts | 59° |
| 2026-05-05 06:02 | 55.94704 | -3.37550 | 102 ft | 25 kts | 58° |
| 2026-05-05 06:02 | 55.94803 | -3.37261 | 101 ft | 26 kts | 59° |
| 2026-05-05 06:03 | 55.94918 | -3.36919 | 102 ft | 16 kts | 59° |
| 2026-05-05 06:03 | 55.94921 | -3.36836 | 102 ft | 10 kts | 124° |
| 2026-05-05 06:03 | 55.94850 | -3.36778 | 101 ft | 12 kts | 179° |
| 2026-05-05 06:03 | 55.94785 | -3.36803 | 101 ft | 7 kts | 257° |
| 2026-05-05 06:04 | 55.94783 | -3.36874 | 102 ft | 3 kts | 269° |
| 2026-05-05 06:04 | 55.94782 | -3.36893 | 103 ft | 0 kts | 269° |